createdAt,value
2023-01-25T00:00:01.421Z,28.01
2023-01-25T00:05:00.669Z,27.59
2023-01-25T00:10:00.825Z,28.28
2023-01-25T00:15:00.926Z,30.48
2023-01-25T00:20:00.791Z,28.51
2023-01-25T00:25:00.641Z,28.26
2023-01-25T00:30:01.016Z,26.42
2023-01-25T00:35:00.670Z,28.26
2023-01-25T00:40:00.734Z,28.52
2023-01-25T00:45:00.789Z,28.68
2023-01-25T00:50:00.728Z,27.77
2023-01-25T00:55:00.739Z,29.14
2023-01-25T01:00:01.057Z,28.46
2023-01-25T01:05:00.719Z,31.77
2023-01-25T01:10:00.738Z,30.51
2023-01-25T01:15:00.769Z,28.11
2023-01-25T01:20:00.733Z,27.92
2023-01-25T01:25:00.655Z,26.70
2023-01-25T01:30:01.060Z,29.73
2023-01-25T01:35:00.679Z,26.83
2023-01-25T01:40:00.965Z,26.06
2023-01-25T01:45:00.996Z,28.44
2023-01-25T01:50:00.699Z,27.61
2023-01-25T01:55:00.730Z,26.55
2023-01-25T02:00:01.098Z,23.86
2023-01-25T02:05:00.646Z,23.50
2023-01-25T02:10:00.724Z,25.32
2023-01-25T02:15:00.825Z,23.78
2023-01-25T02:20:00.662Z,25.96
2023-01-25T02:25:00.735Z,24.63
2023-01-25T02:30:00.889Z,26.27
2023-01-25T02:35:00.641Z,24.79
2023-01-25T02:40:00.692Z,21.78
2023-01-25T02:45:00.777Z,18.62
2023-01-25T02:50:00.732Z,18.14
2023-01-25T02:55:00.648Z,19.19
2023-01-25T03:00:00.920Z,17.36
2023-01-25T03:05:00.661Z,18.16
2023-01-25T03:10:00.783Z,16.12
2023-01-25T03:15:01.085Z,18.05
2023-01-25T03:20:00.791Z,16.73
2023-01-25T03:25:00.688Z,17.95
2023-01-25T03:30:02.200Z,16.22
2023-01-25T03:35:00.757Z,18.72
2023-01-25T03:40:00.887Z,18.08
2023-01-25T03:45:00.969Z,15.59
2023-01-25T03:50:00.702Z,16.42
2023-01-25T03:55:00.667Z,15.56
2023-01-25T04:00:01.195Z,16.63
2023-01-25T04:10:01.211Z,16.94
2023-01-25T04:15:00.320Z,16.24
2023-01-25T04:20:00.339Z,14.14
2023-01-25T04:25:00.459Z,16.79
2023-01-25T04:30:00.309Z,13.86
2023-01-25T04:35:00.412Z,15.16
2023-01-25T04:40:00.392Z,13.98
2023-01-25T04:45:00.321Z,14.23
2023-01-25T04:50:00.296Z,14.82
2023-01-25T04:55:00.877Z,14.93
2023-01-25T05:00:00.336Z,16.70
2023-01-25T05:05:00.428Z,14.87
2023-01-25T05:10:00.598Z,14.90
2023-01-25T05:15:00.347Z,16.35
2023-01-25T05:20:00.302Z,15.82
2023-01-25T05:25:01.281Z,12.53
2023-01-25T05:30:00.332Z,15.76
2023-01-25T05:35:01.056Z,15.27
2023-01-25T05:40:00.408Z,13.51
2023-01-25T05:45:00.361Z,14.89
2023-01-25T05:50:00.665Z,14.89
2023-01-25T05:55:00.540Z,15.50
2023-01-25T06:00:00.551Z,14.96
2023-01-25T06:05:00.310Z,35.78
2023-01-25T06:10:00.538Z,20.58
2023-01-25T06:15:00.335Z,15.31
2023-01-25T06:20:00.593Z,15.17
2023-01-25T06:25:01.386Z,12.93
2023-01-25T06:30:00.313Z,14.56
2023-01-25T06:35:00.398Z,16.26
2023-01-25T06:40:01.657Z,16.54
2023-01-25T06:45:00.294Z,15.22
2023-01-25T06:50:01.561Z,14.55
2023-01-25T06:55:00.464Z,13.33
2023-01-25T07:00:00.661Z,15.33
2023-01-25T07:05:00.331Z,13.81
2023-01-25T07:10:00.542Z,16.86
2023-01-25T07:15:00.345Z,16.66
2023-01-25T07:20:00.440Z,15.36
2023-01-25T07:25:00.561Z,15.59
2023-01-25T07:30:00.314Z,16.45
2023-01-25T07:35:00.338Z,13.69
2023-01-25T07:40:00.497Z,24.84
2023-01-25T07:45:00.319Z,18.49
2023-01-25T07:50:00.386Z,17.64
2023-01-25T07:55:00.598Z,18.78
2023-01-25T08:00:00.302Z,18.81
2023-01-25T08:05:01.464Z,19.62
2023-01-25T08:10:00.728Z,15.83
2023-01-25T08:15:00.374Z,17.94
2023-01-25T08:20:00.288Z,18.54
2023-01-25T08:25:00.548Z,16.94
2023-01-25T08:30:00.288Z,16.34
2023-01-25T08:35:00.456Z,15.22
2023-01-25T08:40:01.098Z,17.51
2023-01-25T08:45:00.396Z,18.07
2023-01-25T08:50:00.353Z,16.34
2023-01-25T08:55:00.739Z,20.74
2023-01-25T09:00:00.334Z,17.18
2023-01-25T09:05:00.437Z,19.94
2023-01-25T09:10:00.641Z,17.43
2023-01-25T09:15:00.349Z,18.30
2023-01-25T09:20:00.351Z,20.04
2023-01-25T09:25:00.516Z,18.62
2023-01-25T09:30:16.679Z,16.44
2023-01-25T09:35:00.442Z,17.44
2023-01-25T09:40:01.154Z,21.14
2023-01-25T09:45:00.347Z,16.27
2023-01-25T09:50:00.363Z,16.18
2023-01-25T09:55:01.281Z,21.86
2023-01-25T10:00:01.214Z,17.34
2023-01-25T10:05:00.453Z,16.18
2023-01-25T10:10:00.642Z,14.98
2023-01-25T10:15:00.447Z,15.64
2023-01-25T10:20:00.338Z,20.13
2023-01-25T10:25:01.968Z,15.24
2023-01-25T10:30:00.341Z,14.72
2023-01-25T10:35:00.417Z,17.17
2023-01-25T10:40:00.585Z,18.98
2023-01-25T10:45:00.337Z,17.67
2023-01-25T10:50:00.434Z,16.44
2023-01-25T10:55:00.902Z,16.06
2023-01-25T11:00:00.356Z,20.11
2023-01-25T11:05:00.379Z,13.93
2023-01-25T11:10:01.240Z,14.60
2023-01-25T11:15:00.342Z,18.28
2023-01-25T11:20:00.425Z,18.51
2023-01-25T11:25:01.463Z,22.20
2023-01-25T11:30:01.362Z,17.80
2023-01-25T11:35:00.469Z,22.32
2023-01-25T11:40:00.986Z,22.01
2023-01-25T11:45:00.313Z,22.25
2023-01-25T11:50:00.323Z,17.08
2023-01-25T11:55:00.662Z,19.06
2023-01-25T12:00:00.296Z,20.17
2023-01-25T12:05:06.346Z,18.67
2023-01-25T12:10:00.642Z,17.84
2023-01-25T12:15:00.397Z,15.58
2023-01-25T12:20:00.295Z,18.94
2023-01-25T12:25:01.320Z,16.70
2023-01-25T12:30:00.296Z,16.48
2023-01-25T12:35:00.389Z,17.90
2023-01-25T12:40:00.780Z,20.35
2023-01-25T12:45:00.324Z,20.39
2023-01-25T12:50:00.586Z,17.69
2023-01-25T12:55:00.641Z,18.26
2023-01-25T13:00:00.442Z,17.04
2023-01-25T13:05:00.292Z,19.30
2023-01-25T13:10:00.430Z,19.74
2023-01-25T13:15:00.336Z,20.81
2023-01-25T13:20:00.352Z,20.17
2023-01-25T13:25:01.001Z,18.64
2023-01-25T13:30:00.497Z,21.60
2023-01-25T13:35:00.366Z,19.57
2023-01-25T13:40:06.526Z,22.57
2023-01-25T13:45:00.366Z,22.08
2023-01-25T13:50:01.428Z,18.19
2023-01-25T13:55:01.349Z,22.56
2023-01-25T14:00:09.947Z,18.35
2023-01-25T14:05:00.428Z,21.97
2023-01-25T14:10:00.400Z,21.31
2023-01-25T14:15:00.379Z,22.44
2023-01-25T14:20:00.360Z,22.28
2023-01-25T14:25:00.572Z,22.29
2023-01-25T14:30:00.465Z,21.88
2023-01-25T14:35:00.427Z,20.31
2023-01-25T14:40:00.529Z,23.27
2023-01-25T14:45:00.293Z,23.62
2023-01-25T14:50:00.336Z,23.67
2023-01-25T14:55:00.856Z,18.72
2023-01-25T15:00:00.336Z,28.38
2023-01-25T15:05:04.905Z,25.28
2023-01-25T15:10:00.443Z,26.31
2023-01-25T15:15:01.371Z,23.53
2023-01-25T15:20:00.318Z,25.61
2023-01-25T15:25:03.216Z,25.21
2023-01-25T15:30:00.355Z,24.45
2023-01-25T15:35:00.382Z,23.91
2023-01-25T15:40:00.673Z,25.32
2023-01-25T15:45:00.349Z,24.95
2023-01-25T15:50:00.440Z,25.96
2023-01-25T15:55:02.139Z,21.72
2023-01-25T16:00:02.168Z,24.59
2023-01-25T16:05:00.526Z,24.50
2023-01-25T16:10:00.603Z,27.22
2023-01-25T16:15:00.644Z,28.40
2023-01-25T16:20:01.552Z,26.27
2023-01-25T16:25:00.431Z,22.61
2023-01-25T16:30:01.458Z,24.09
2023-01-25T16:35:00.453Z,26.68
2023-01-25T16:40:00.410Z,24.15
2023-01-25T16:45:00.354Z,23.97
2023-01-25T16:50:00.387Z,26.09
2023-01-25T16:55:01.558Z,26.96
2023-01-25T17:00:02.882Z,26.11
2023-01-25T17:05:00.488Z,26.87
2023-01-25T17:10:00.425Z,27.53
2023-01-25T17:15:00.402Z,26.81
2023-01-25T17:20:00.809Z,26.92
2023-01-25T17:25:00.483Z,23.06
2023-01-25T17:30:00.598Z,27.55
2023-01-25T17:35:00.518Z,27.01
2023-01-25T17:40:00.418Z,25.28
2023-01-25T17:45:00.425Z,23.01
2023-01-25T17:50:00.456Z,23.55
2023-01-25T17:55:00.612Z,24.84
2023-01-25T18:00:00.332Z,28.84
2023-01-25T18:05:00.411Z,28.49
2023-01-25T18:10:00.492Z,25.79
2023-01-25T18:15:00.376Z,30.03
2023-01-25T18:20:00.477Z,27.89
2023-01-25T18:25:00.603Z,27.92
2023-01-25T18:30:00.327Z,26.57
2023-01-25T18:35:00.450Z,27.76
2023-01-25T18:40:01.349Z,27.58
2023-01-25T18:45:00.320Z,27.51
2023-01-25T18:50:00.434Z,29.87
2023-01-25T18:55:00.584Z,25.33
2023-01-25T19:00:00.469Z,30.17
2023-01-25T19:05:00.502Z,30.96
2023-01-25T19:10:00.415Z,31.59
2023-01-25T19:15:00.372Z,29.17
2023-01-25T19:20:00.473Z,29.28
2023-01-25T19:25:00.732Z,29.67
2023-01-25T19:30:00.311Z,31.20
2023-01-25T19:35:00.490Z,30.60
2023-01-25T19:40:00.931Z,31.81
2023-01-25T19:45:00.333Z,29.69
2023-01-25T19:50:00.876Z,27.90
2023-01-25T19:55:00.496Z,27.50
2023-01-25T20:00:00.645Z,25.37
2023-01-25T20:05:00.390Z,26.49
2023-01-25T20:10:00.543Z,26.01
2023-01-25T20:15:00.321Z,29.07
2023-01-25T20:20:00.624Z,27.13
2023-01-25T20:25:01.325Z,29.18
2023-01-25T20:30:00.291Z,28.50
2023-01-25T20:35:00.448Z,28.37
2023-01-25T20:40:00.591Z,27.55
2023-01-25T20:45:00.296Z,30.45
2023-01-25T20:50:00.700Z,30.69
2023-01-25T20:55:00.504Z,30.21
2023-01-25T21:00:00.493Z,31.74
2023-01-25T21:05:00.404Z,31.08
2023-01-25T21:10:00.405Z,32.56
2023-01-25T21:15:00.730Z,31.51
2023-01-25T21:20:00.330Z,28.37
2023-01-25T21:25:00.515Z,29.08
2023-01-25T21:30:00.347Z,26.80
2023-01-25T21:35:00.459Z,25.80
2023-01-25T21:40:01.547Z,26.15
2023-01-25T21:45:00.343Z,26.01
2023-01-25T21:50:00.446Z,26.99
2023-01-25T21:55:00.600Z,26.17
2023-01-25T22:00:00.326Z,25.50
2023-01-25T22:05:00.663Z,24.52
2023-01-25T22:10:00.512Z,28.24
2023-01-25T22:15:00.825Z,28.15
2023-01-25T22:20:00.330Z,27.54
2023-01-25T22:25:00.523Z,29.15
2023-01-25T22:30:00.291Z,28.07
2023-01-25T22:40:00.599Z,27.11
2023-01-25T22:45:00.397Z,23.67
2023-01-25T22:50:00.480Z,25.82
2023-01-25T22:55:00.687Z,27.04
2023-01-25T23:00:00.505Z,24.49
2023-01-25T23:05:00.541Z,26.36
2023-01-25T23:10:00.921Z,22.38
2023-01-25T23:15:00.652Z,23.86
2023-01-25T23:20:00.570Z,27.62
2023-01-25T23:25:00.599Z,25.95
2023-01-25T23:30:00.400Z,24.71
2023-01-25T23:35:00.779Z,27.22
2023-01-25T23:40:01.746Z,28.93
2023-01-25T23:45:00.413Z,27.41
2023-01-25T23:50:00.560Z,27.15
2023-01-25T23:55:01.410Z,30.31
